createdAt,value
2022-11-27T00:03:50.364Z,93.98
2022-11-27T00:13:58.575Z,94.10
2022-11-27T00:24:07.254Z,94.08
2022-11-27T00:34:14.600Z,93.88
2022-11-27T00:44:22.396Z,93.98
2022-11-27T00:54:29.573Z,93.93
2022-11-27T01:04:36.984Z,94.00
2022-11-27T01:14:44.439Z,94.17
2022-11-27T01:24:51.512Z,94.20
2022-11-27T01:34:58.553Z,94.07
2022-11-27T01:45:05.980Z,94.22
2022-11-27T01:55:13.832Z,94.16
2022-11-27T02:05:24.158Z,94.18
2022-11-27T02:15:31.400Z,94.01
2022-11-27T02:25:42.641Z,93.72
2022-11-27T02:35:57.321Z,93.73
2022-11-27T02:46:06.537Z,93.88
2022-11-27T02:56:17.961Z,93.91
2022-11-27T03:06:29.318Z,93.90
2022-11-27T03:16:36.185Z,93.69
2022-11-27T03:26:44.056Z,93.70
2022-11-27T03:36:51.364Z,93.66
2022-11-27T03:46:59.707Z,93.82
2022-11-27T03:57:12.250Z,93.77
2022-11-27T04:07:20.229Z,94.23
2022-11-27T04:17:27.335Z,94.16
2022-11-27T04:27:34.575Z,93.83
2022-11-27T04:37:41.796Z,93.77
2022-11-27T04:47:49.031Z,93.82
2022-11-27T04:57:56.098Z,93.79
2022-11-27T05:08:03.283Z,94.02
2022-11-27T05:18:07.697Z,94.01
2022-11-27T05:28:14.814Z,94.20
2022-11-27T05:38:20.972Z,94.07
2022-11-27T05:48:27.928Z,93.98
2022-11-27T05:58:36.218Z,93.80
2022-11-27T06:08:43.718Z,94.04
2022-11-27T06:18:49.928Z,94.38
2022-11-27T06:28:58.842Z,94.28
2022-11-27T06:39:05.642Z,94.01
2022-11-27T06:49:13.098Z,93.89
2022-11-27T06:59:20.947Z,93.95
2022-11-27T07:09:27.879Z,93.90
2022-11-27T07:19:35.168Z,94.10
2022-11-27T07:29:42.352Z,94.11
2022-11-27T07:40:05.005Z,94.04
2022-11-27T07:50:13.820Z,94.22
2022-11-27T08:00:22.314Z,94.33
2022-11-27T08:10:30.039Z,94.19
2022-11-27T08:20:37.961Z,94.03
2022-11-27T08:30:45.103Z,94.08
2022-11-27T08:40:55.601Z,93.89
2022-11-27T08:51:05.968Z,94.34
2022-11-27T09:01:11.490Z,94.15
2022-11-27T09:11:20.622Z,93.89
2022-11-27T09:21:30.518Z,94.11
2022-11-27T09:31:37.820Z,93.97
2022-11-27T09:41:51.302Z,94.09
2022-11-27T09:51:59.898Z,94.19
2022-11-27T10:02:16.089Z,94.00
2022-11-27T10:12:21.906Z,93.64
2022-11-27T10:22:36.625Z,93.59
2022-11-27T10:33:01.510Z,93.48
2022-11-27T10:43:12.062Z,93.60
2022-11-27T10:53:17.405Z,93.55
2022-11-27T11:03:25.672Z,93.29
2022-11-27T11:13:34.835Z,93.30
2022-11-27T11:23:42.431Z,93.18
2022-11-27T11:33:51.347Z,93.14
2022-11-27T11:43:57.427Z,92.94
2022-11-27T11:54:04.232Z,92.65
2022-11-27T12:04:13.420Z,92.34
2022-11-27T12:14:20.251Z,92.32
2022-11-27T12:24:29.171Z,92.46
2022-11-27T12:34:35.727Z,92.18
2022-11-27T12:44:43.103Z,91.95
2022-11-27T12:54:49.382Z,91.77
2022-11-27T13:04:59.009Z,91.47
2022-11-27T13:15:08.009Z,91.56
2022-11-27T13:25:14.489Z,91.50
2022-11-27T13:35:21.907Z,91.27
2022-11-27T13:45:33.010Z,91.01
2022-11-27T13:55:53.594Z,90.92
2022-11-27T14:06:01.022Z,90.72
2022-11-27T14:16:14.353Z,90.85
2022-11-27T14:26:23.273Z,90.86
2022-11-27T14:36:32.035Z,90.71
2022-11-27T14:46:39.327Z,90.66
2022-11-27T14:56:47.605Z,90.58
2022-11-27T15:06:54.260Z,90.52
2022-11-27T15:27:16.531Z,90.61
2022-11-27T15:37:22.216Z,90.66
2022-11-27T15:47:27.580Z,90.75
2022-11-27T15:57:34.645Z,90.58
2022-11-27T16:07:40.554Z,90.60
2022-11-27T16:17:47.845Z,90.71
2022-11-27T16:28:00.929Z,90.71
2022-11-27T16:38:10.056Z,90.61
2022-11-27T16:58:23.760Z,90.64
2022-11-27T17:08:31.175Z,90.50
2022-11-27T17:18:38.387Z,90.70
2022-11-27T17:28:46.113Z,90.94
2022-11-27T17:38:54.225Z,90.92
2022-11-27T17:49:00.862Z,90.88
2022-11-27T17:59:08.063Z,90.87
2022-11-27T18:09:15.134Z,90.76
2022-11-27T18:19:22.957Z,90.83
2022-11-27T18:29:30.253Z,90.93
2022-11-27T18:39:38.459Z,90.99
2022-11-27T18:49:45.823Z,90.78
2022-11-27T18:59:51.978Z,90.66
2022-11-27T19:09:59.311Z,90.55
2022-11-27T19:20:08.044Z,90.58
2022-11-27T19:30:16.596Z,90.57
2022-11-27T19:40:24.651Z,90.63
2022-11-27T19:50:31.971Z,90.36
2022-11-27T20:00:39.726Z,90.30
2022-11-27T20:10:50.363Z,90.11
2022-11-27T20:21:05.128Z,90.13
2022-11-27T20:31:17.323Z,90.25
2022-11-27T20:41:25.469Z,90.24
2022-11-27T20:51:33.659Z,90.15
2022-11-27T21:01:43.168Z,89.98
2022-11-27T21:11:49.052Z,90.01
2022-11-27T21:21:57.287Z,90.11
2022-11-27T21:32:04.765Z,89.86
2022-11-27T21:42:12.504Z,89.66
2022-11-27T21:52:19.656Z,89.71
2022-11-27T22:02:27.389Z,89.57
2022-11-27T22:12:34.823Z,89.46
2022-11-27T22:22:41.856Z,89.22
2022-11-27T22:32:49.259Z,89.08
2022-11-27T22:42:56.531Z,89.32
2022-11-27T22:53:04.410Z,89.16
2022-11-27T23:03:11.506Z,88.95
2022-11-27T23:13:19.880Z,88.92
2022-11-27T23:23:27.086Z,89.06
2022-11-27T23:33:34.303Z,88.94
2022-11-27T23:43:42.612Z,88.98
2022-11-27T23:53:50.388Z,88.87
